Latest Weather Forecast - Monday 9th September 2019 (6 am)

Forecast Period:  6:00 am 9th September 2019 to 12:00 Noon 9th September  2019 
Synopsis: Weak unstable conditions are affecting the islands
Forecast: Partly cloudy to occasionally cloudy with some scattered showers and the slight chance of isolated thunderstorms

Weather 
Advisory/Warning:

None

Winds: ENE-E at 10 to 25 km/h ( 6 to 16 mph)
Sea Conditions: Slight t in open water with swells from 0.5m to 1.2m
Marine 
Advisory/Warning:

None

Upcoming Tides:
 High: **** 2:03 pm    
Low: 7:19 am 10:15 pm

Aviation WX

[Source: ADDS]
METAR
TVSA 261200Z 08005KT 040V120 9999 BKN018 27/22 Q1015 NOSIG =
TVSA 261100Z 2612/2712 06008KT 9999 SCT018 TEMPO 2612/2622 SHRA BKN015 SCT036
TAF
TVSA 261100Z 2612/2712 06008KT 9999 SCT018 TEMPO 2612/2622 SHRA BKN015 SCT036 =
SR / SS: 10:22 / 22:12 UTC (Sunrise Sunset 2020-02-26)